Grundy Center, Iowa
Current Conditions -  °F | °C
As of 3:53 AM on Friday 19 Dec 2014 (Local Time) from KMIW Reporting Station
Overcast Overcast  
Wind Chill: 18°   Ceiling: 3800
Heat Index: 24°   Visibility: 8mi
Dew Point: 21°   Wind: 5mph
Humidity: 88%   Direction: 130°SE
Pressure: 30.25"   Gusts: NA
Location:  42.36°N, 92.77°W
Report Text: KMIW 190953Z AUTO 13004KT 8SM OVC038 M04/M06 A3025 RMK AO2 SLP259 T10441061
Loading
Personal Weather Stations






























Interactive Weather Map New forecast layout! Learn more

10-Day Weather Forecast

Advertisements
Track Severe Weather on mobile